PHTO

Hilo International Airport

Hilo, Hawaii, USA
PHTO 211736Z 2118/2218 24005KT 6SM HZ VCSH BKN030 OVC060 FM212000 09011KT P6SM FEW025 SCT040 FM220600 24005KT P6SM VCSH SCT025 BKN040
Issued Valid From Valid To
Jun-21 @ 17:36 UTC
(33 minutes ago)
Jun-21 @ 18:00 UTC
(9 minutes ago)
Jun-22 @ 18:00 UTC
(in 24 hours)
Jun-21 @ 18:00 to Jun-21 @ 20:00
PHTO 211736Z 2118/2218 24005KT 6SM HZ VCSH BKN030 OVC060
Wind Visibility Clouds Conditions
240° at 5 knots 6 miles
  • Broken at 3,000' AGL
  • Overcast at 6,000' AGL
  • Haze
From Jun-21 @ 20:00 to Jun-22 @ 06:00
FM212000 09011KT P6SM FEW025 SCT040
Wind Visibility Clouds
90° at 11 knots Greater than 6 miles
  • Few at 2,500' AGL
  • Scattered at 4,000' AGL
From Jun-22 @ 06:00 to Jun-22 @ 18:00
FM220600 24005KT P6SM VCSH SCT025 BKN040
Wind Visibility Clouds
240° at 5 knots Greater than 6 miles
  • Scattered at 2,500' AGL
  • Broken at 4,000' AGL
PHTO 211736Z 2118/2218 24005KT 6SM HZ VCSH BKN030 OVC060 FM212000 09011KT P6SM FEW025 SCT040 FM220600 24005KT P6SM VCSH SCT025 BKN040
Issued Jun-21 @ 17:36 UTC
(33 minutes ago)
Valid From Jun-21 @ 18:00 UTC
(9 minutes ago)
Valid To Jun-22 @ 18:00 UTC
(in 24 hours)
Jun-21 @ 18:00 - Jun-21 @ 20:00
Wind Visibility
240° at 5 knots 6 miles
Clouds
  • Broken at 3,000' AGL
  • Overcast at 6,000' AGL
Conditions
  • Haze
From Jun-21 @ 20:00 - Jun-22 @ 06:00
Wind Visibility
90° at 11 knots Greater than 6 miles
Clouds
  • Few at 2,500' AGL
  • Scattered at 4,000' AGL
From Jun-22 @ 06:00 - Jun-22 @ 18:00
Wind Visibility
240° at 5 knots Greater than 6 miles
Clouds
  • Scattered at 2,500' AGL
  • Broken at 4,000' AGL